Time;durP1;ratioP1;P1;durP2;ratioP2;P2;SDS_P1;SDS_P2;PMS_P1;PMS_P2;Temp;Humidity;BMP_temperature;BMP_pressure;BME280_temperature;BME280_humidity;BME280_pressure;Samples;Min_cycle;Max_cycle;Signal;HPM_P1;HPM_P2
2022/09/18 00:01:35;;;;;;;11.32;1.67;;;;;;;22.34;46.82;101705.63;5022571;28;20033;-76
2022/09/18 00:04:04;;;;;;;8.05;1.70;;;;;;;22.22;47.10;101716.81;5031646;28;20095;-76
2022/09/18 00:06:32;;;;;;;8.55;1.77;;;;;;;22.13;46.91;101715.41;5076441;28;20064;-76
2022/09/18 00:08:59;;;;;;;12.63;2.35;;;;;;;22.36;46.63;101714.41;5038992;28;20029;-76
2022/09/18 00:11:27;;;;;;;6.53;0.93;;;;;;;22.56;45.43;101720.59;5012297;28;20029;-76
2022/09/18 00:13:53;;;;;;;10.73;2.97;;;;;;;22.34;46.64;101713.63;5030947;28;20076;-77
2022/09/18 00:16:20;;;;;;;9.73;1.30;;;;;;;22.56;45.55;101710.81;5030906;28;20026;-76
2022/09/18 00:18:46;;;;;;;7.63;1.20;;;;;;;22.31;46.10;101705.72;5031192;28;20464;-76
2022/09/18 00:21:18;;;;;;;5.63;1.10;;;;;;;22.27;46.72;101704.13;5031006;28;20037;-77
2022/09/18 00:23:44;;;;;;;9.40;1.20;;;;;;;22.66;45.47;101712.09;5031140;28;20477;-77
2022/09/18 00:26:15;;;;;;;15.82;1.73;;;;;;;22.09;46.07;101724.47;5030353;28;20120;-77
2022/09/18 00:28:40;;;;;;;5.70;1.05;;;;;;;22.32;45.64;101708.28;5029485;28;20030;-76
2022/09/18 00:31:18;;;;;;;9.77;1.02;;;;;;;22.23;46.64;101718.50;5019505;28;20041;-77
2022/09/18 00:33:44;;;;;;;7.65;1.13;;;;;;;21.98;46.09;101716.94;5012536;28;20049;-77
2022/09/18 00:36:12;;;;;;;6.07;1.10;;;;;;;22.51;45.56;101707.50;5028099;28;20469;-76
2022/09/18 00:38:37;;;;;;;8.40;1.10;;;;;;;21.95;46.43;101714.41;5030958;28;20083;-77
2022/09/18 00:41:06;;;;;;;11.50;2.63;;;;;;;22.18;45.64;101705.41;5014988;28;20494;-77
2022/09/18 00:43:34;;;;;;;6.38;1.30;;;;;;;21.55;46.33;101705.50;5010667;28;20070;-75
2022/09/18 00:46:04;;;;;;;7.03;1.27;;;;;;;21.65;46.35;101705.06;5055658;28;20029;-76
2022/09/18 00:49:01;;;;;;;8.23;0.95;;;;;;;22.05;46.14;101704.22;5064155;28;20084;-77
2022/09/18 00:51:28;;;;;;;10.90;1.15;;;;;;;21.67;45.95;101705.00;5028547;28;20029;-76
2022/09/18 00:54:07;;;;;;;5.93;0.93;;;;;;;21.42;47.20;101716.63;5011318;28;20034;-76
2022/09/18 00:56:34;;;;;;;8.98;0.98;;;;;;;21.25;47.00;101708.47;5012246;28;20080;-76
2022/09/18 00:58:59;;;;;;;4.78;1.23;;;;;;;20.64;47.81;101709.97;5011439;28;20072;-77
2022/09/18 01:01:25;;;;;;;5.15;0.63;;;;;;;21.67;46.02;101721.81;5011653;28;20374;-77
2022/09/18 01:03:50;;;;;;;5.57;0.80;;;;;;;20.95;47.37;101722.06;5025604;28;20077;-77
2022/09/18 01:06:27;;;;;;;9.38;0.85;;;;;;;19.82;49.48;101745.66;5031825;28;20041;-75
2022/09/18 01:08:56;;;;;;;8.25;0.82;;;;;;;20.29;51.05;101738.69;5042729;28;20065;-75
2022/09/18 01:11:48;;;;;;;4.80;0.90;;;;;;;20.69;49.87;101723.97;5030065;28;20029;-75
2022/09/18 01:14:22;;;;;;;6.30;0.88;;;;;;;19.00;54.37;101712.97;5030206;28;20041;-75
2022/09/18 01:16:48;;;;;;;4.10;0.80;;;;;;;19.59;52.83;101724.31;5030500;28;20033;-77
2022/09/18 01:19:48;;;;;;;7.57;0.90;;;;;;;20.02;52.22;101704.28;5027859;28;20478;-75
2022/09/18 01:22:38;;;;;;;5.30;0.93;;;;;;;19.52;52.86;101704.22;5030576;28;20095;-75
2022/09/18 01:25:19;;;;;;;3.03;0.45;;;;;;;19.72;53.03;101685.00;5011280;28;20080;-75
2022/09/18 01:27:59;;;;;;;3.37;0.60;;;;;;;20.01;52.04;101697.25;5023672;28;20520;-76
2022/09/18 01:30:25;;;;;;;10.10;1.20;;;;;;;20.48;50.35;101686.66;5019104;28;20034;-76
2022/09/18 01:32:58;;;;;;;10.90;0.90;;;;;;;20.69;50.51;101681.47;5010249;28;20359;-76
2022/09/18 01:35:38;;;;;;;;;;;;;;;20.87;49.13;101689.63;5029092;28;20037;-76
2022/09/18 01:38:06;;;;;;;7.47;1.23;;;;;;;20.72;50.17;101684.00;5030193;28;19935;-77
2022/09/18 01:41:04;;;;;;;5.83;0.70;;;;;;;21.34;49.05;101678.88;5011800;28;20037;-77
2022/09/18 01:43:30;;;;;;;2.83;0.67;;;;;;;21.64;46.80;101678.53;5012004;28;20054;-77
2022/09/18 01:46:00;;;;;;;8.75;0.95;;;;;;;21.75;46.40;101676.25;5040829;28;20474;-77
2022/09/18 01:48:29;;;;;;;8.32;0.75;;;;;;;21.84;46.58;101682.97;5014487;28;20052;-77
2022/09/18 01:51:05;;;;;;;6.93;0.85;;;;;;;22.03;45.44;101675.03;5014403;28;20029;-77
2022/09/18 01:53:44;;;;;;;4.57;0.80;;;;;;;21.23;47.03;101679.31;5013329;28;20129;-77
2022/09/18 01:56:18;;;;;;;6.70;1.13;;;;;;;22.01;46.19;101682.22;5015312;28;20022;-77
2022/09/18 01:58:45;;;;;;;9.20;0.95;;;;;;;21.78;46.27;101681.44;5035051;28;20030;-76
2022/09/18 02:01:15;;;;;;;5.90;1.48;;;;;;;21.82;46.41;101683.03;5017709;28;20041;-76
2022/09/18 02:03:45;;;;;;;4.72;0.85;;;;;;;22.09;45.87;101689.84;5030149;28;20033;-76
2022/09/18 02:06:18;;;;;;;8.43;1.10;;;;;;;22.33;45.66;101669.25;5033919;28;20041;-75
2022/09/18 02:08:47;;;;;;;4.97;0.90;;;;;;;21.95;47.61;101682.50;5032743;28;20496;-76
2022/09/18 02:11:16;;;;;;;9.88;1.48;;;;;;;22.22;48.81;101675.06;5030627;28;20519;-76
2022/09/18 02:13:45;;;;;;;14.55;2.15;;;;;;;22.33;45.81;101677.22;5027828;28;20087;-76
2022/09/18 02:16:41;;;;;;;4.20;0.80;;;;;;;22.45;46.43;101676.69;5066299;28;20021;-75
2022/09/18 02:19:29;;;;;;;9.60;1.42;;;;;;;22.56;45.17;101668.19;5014224;28;20116;-76
2022/09/18 02:21:57;;;;;;;8.32;0.93;;;;;;;22.40;46.00;101668.03;5027879;28;20060;-76
2022/09/18 02:24:28;;;;;;;4.63;0.85;;;;;;;21.77;46.00;101676.19;5032703;28;20026;-76
2022/09/18 02:26:55;;;;;;;10.68;1.08;;;;;;;22.13;47.30;101663.03;5019600;28;20028;-76
2022/09/18 02:29:23;;;;;;;5.80;1.02;;;;;;;22.22;46.78;101668.88;5028672;28;20036;-76
2022/09/18 02:31:49;;;;;;;8.32;0.82;;;;;;;22.32;45.83;101665.69;5013510;28;20544;-77
2022/09/18 02:34:16;;;;;;;4.65;0.88;;;;;;;22.64;46.75;101665.16;5021788;28;20433;-76
2022/09/18 02:36:52;;;;;;;3.03;0.82;;;;;;;22.81;45.32;101667.88;5032393;28;20044;-76
2022/09/18 02:39:30;;;;;;;13.43;2.28;;;;;;;22.78;44.42;101659.16;5033115;28;20095;-76
2022/09/18 02:42:29;;;;;;;8.85;1.20;;;;;;;22.34;45.68;101665.69;5022909;28;20033;-76
2022/09/18 02:45:06;;;;;;;7.80;1.58;;;;;;;22.52;45.39;101666.63;5056081;28;20139;-77
2022/09/18 02:47:46;;;;;;;6.15;0.65;;;;;;;22.80;44.82;101666.13;5034105;28;20041;-77
2022/09/18 02:50:17;;;;;;;6.82;0.80;;;;;;;22.52;45.30;101667.47;5065121;28;20064;-77
2022/09/18 02:53:07;;;;;;;13.02;1.40;;;;;;;22.65;44.76;101664.22;5032461;28;20073;-76
2022/09/18 02:55:50;;;;;;;6.57;1.20;;;;;;;22.53;45.09;101653.22;5022113;28;20034;-77
2022/09/18 02:58:34;;;;;;;13.15;2.65;;;;;;;22.57;44.76;101653.91;5014390;28;20492;-77
2022/09/18 03:01:03;;;;;;;8.73;2.45;;;;;;;22.11;45.94;101664.91;5014356;28;20486;-77
2022/09/18 03:03:31;;;;;;;6.53;0.88;;;;;;;22.18;45.74;101655.69;5045456;28;20034;-77
2022/09/18 03:05:57;;;;;;;4.53;0.77;;;;;;;22.27;44.86;101666.84;5037661;28;20473;-77
2022/09/18 03:08:23;;;;;;;9.70;1.00;;;;;;;21.07;47.08;101668.44;5015737;28;20076;-76
2022/09/18 03:10:49;;;;;;;9.13;0.90;;;;;;;21.18;47.91;101666.22;5028959;28;20033;-77
2022/09/18 03:13:14;;;;;;;7.13;0.80;;;;;;;21.84;46.52;101659.00;5023395;28;20038;-77
2022/09/18 03:15:40;;;;;;;11.57;1.02;;;;;;;21.23;47.17;101658.03;5032137;28;20025;-77
2022/09/18 03:18:05;;;;;;;8.82;1.02;;;;;;;21.52;46.28;101654.16;5028080;28;20034;-76
2022/09/18 03:20:31;;;;;;;11.20;1.33;;;;;;;21.09;46.58;101657.72;5020329;28;20149;-76
2022/09/18 03:22:56;;;;;;;8.13;2.10;;;;;;;21.45;46.14;101652.69;5032472;28;20071;-77
2022/09/18 03:25:22;;;;;;;7.00;1.13;;;;;;;21.47;46.23;101650.81;5030586;28;20126;-77
2022/09/18 03:27:47;;;;;;;2.92;0.98;;;;;;;22.01;45.48;101655.63;5019937;28;20022;-77
2022/09/18 03:30:13;;;;;;;7.25;1.08;;;;;;;20.69;48.89;101660.22;5045334;28;20030;-77
2022/09/18 03:32:38;;;;;;;6.90;0.95;;;;;;;19.77;50.15;101657.38;5012603;28;20044;-76
2022/09/18 03:35:04;;;;;;;6.57;1.00;;;;;;;20.47;50.20;101646.88;5031685;28;20029;-75
2022/09/18 03:37:29;;;;;;;2.72;0.60;;;;;;;20.88;49.29;101646.19;5022918;28;20030;-77
2022/09/18 03:39:55;;;;;;;7.30;0.80;;;;;;;21.52;46.77;101645.31;5044597;28;20028;-77
2022/09/18 03:42:20;;;;;;;12.02;2.85;;;;;;;19.89;50.86;101650.78;5014599;28;20410;-77
2022/09/18 03:44:46;;;;;;;7.90;1.30;;;;;;;21.36;47.92;101639.75;5031913;28;20055;-77
2022/09/18 03:47:11;;;;;;;6.67;0.60;;;;;;;20.38;49.32;101648.09;5026402;28;20505;-77
2022/09/18 03:49:36;;;;;;;4.43;0.93;;;;;;;20.32;49.57;101627.13;5056815;28;20032;-76
2022/09/18 03:52:02;;;;;;;7.32;1.38;;;;;;;20.60;49.12;101636.66;5033081;28;20029;-77
2022/09/18 03:54:27;;;;;;;10.75;0.85;;;;;;;20.81;49.03;101635.84;5031872;28;20021;-77
2022/09/18 03:56:52;;;;;;;5.90;0.63;;;;;;;21.72;46.62;101652.44;5030870;28;20465;-77
2022/09/18 03:59:18;;;;;;;4.25;0.90;;;;;;;19.61;51.67;101661.50;5030482;28;20419;-76
2022/09/18 04:01:43;;;;;;;5.07;0.80;;;;;;;19.57;53.46;101657.22;5032329;28;20397;-74
2022/09/18 04:04:08;;;;;;;5.63;0.80;;;;;;;20.03;52.33;101652.97;5032270;28;20469;-74
2022/09/18 04:06:34;;;;;;;7.78;1.30;;;;;;;20.44;51.36;101650.53;5042436;28;20029;-75
2022/09/18 04:08:59;;;;;;;6.90;0.90;;;;;;;20.53;51.22;101651.97;5052525;28;20063;-76
2022/09/18 04:11:25;;;;;;;6.57;1.10;;;;;;;20.07;51.49;101651.94;5028552;28;20064;-76
2022/09/18 04:13:50;;;;;;;3.63;0.82;;;;;;;20.90;49.98;101649.69;5012150;28;20522;-75
2022/09/18 04:16:16;;;;;;;7.47;1.08;;;;;;;21.67;47.49;101644.66;5045196;28;20029;-76
2022/09/18 04:18:41;;;;;;;7.75;1.17;;;;;;;21.67;47.72;101635.81;5011820;28;20030;-76
2022/09/18 04:21:06;;;;;;;10.48;0.93;;;;;;;21.82;46.77;101643.13;5015201;28;20493;-76
2022/09/18 04:23:32;;;;;;;10.48;1.58;;;;;;;20.96;47.96;101636.97;5032539;28;20164;-76
2022/09/18 04:25:57;;;;;;;8.25;1.38;;;;;;;21.17;48.75;101637.91;5021651;28;20022;-77
2022/09/18 04:28:22;;;;;;;10.00;1.63;;;;;;;21.13;49.10;101646.03;5022528;28;20029;-77
2022/09/18 04:30:48;;;;;;;12.88;1.02;;;;;;;20.60;50.14;101634.00;5030330;28;20592;-76
2022/09/18 04:33:13;;;;;;;7.85;0.95;;;;;;;20.88;49.53;101630.25;5021280;28;20037;-76
2022/09/18 04:35:40;;;;;;;13.75;2.25;;;;;;;20.93;49.39;101633.59;5030382;28;20100;-77
2022/09/18 04:38:07;;;;;;;7.70;1.00;;;;;;;20.50;50.04;101639.66;5030988;28;20413;-76
2022/09/18 04:40:32;;;;;;;6.25;0.80;;;;;;;21.02;47.88;101630.56;5016568;28;20419;-76
2022/09/18 04:42:57;;;;;;;10.10;3.00;;;;;;;21.39;47.77;101634.34;5027572;28;20054;-75
2022/09/18 04:45:23;;;;;;;5.15;0.60;;;;;;;20.54;48.14;101643.06;5030704;28;20025;-76
2022/09/18 04:47:49;;;;;;;2.33;0.70;;;;;;;20.08;47.43;101632.41;5031264;28;20021;-76
2022/09/18 04:50:14;;;;;;;4.05;0.73;;;;;;;21.30;46.20;101637.38;5030006;28;20036;-76
2022/09/18 04:52:39;;;;;;;7.63;1.27;;;;;;;21.14;47.11;101632.72;5027717;28;20393;-76
2022/09/18 04:55:06;;;;;;;5.40;0.65;;;;;;;21.21;45.81;101632.44;5011052;28;20030;-76
2022/09/18 04:57:31;;;;;;;2.15;0.47;;;;;;;19.21;49.21;101641.66;5027140;28;20025;-75
2022/09/18 04:59:57;;;;;;;4.68;0.68;;;;;;;19.24;49.91;101645.03;5010948;28;20026;-76
2022/09/18 05:02:23;;;;;;;6.90;0.60;;;;;;;20.05;48.84;101637.84;5023298;28;20370;-75
2022/09/18 05:04:49;;;;;;;3.33;0.50;;;;;;;20.27;48.90;101629.06;5029904;28;20032;-75
2022/09/18 05:07:14;;;;;;;3.47;0.52;;;;;;;20.90;47.00;101623.09;5039789;28;20463;-76
2022/09/18 05:09:40;;;;;;;3.53;0.43;;;;;;;21.15;46.22;101623.78;5018098;28;20028;-77
2022/09/18 05:12:06;;;;;;;4.13;0.68;;;;;;;21.35;46.11;101619.44;5011409;28;20022;-77
2022/09/18 05:14:32;;;;;;;3.60;0.73;;;;;;;21.62;45.57;101617.38;5011199;28;20100;-77
2022/09/18 05:16:57;;;;;;;3.40;0.57;;;;;;;21.65;45.27;101624.38;5019080;28;20021;-77
2022/09/18 05:19:23;;;;;;;3.08;0.50;;;;;;;22.00;44.99;101616.63;5034715;28;20022;-77
2022/09/18 05:21:49;;;;;;;3.72;0.70;;;;;;;22.40;44.05;101608.59;5035940;28;20091;-77
2022/09/18 05:24:16;;;;;;;2.45;0.70;;;;;;;22.17;44.15;101603.41;5025788;28;20032;-77
2022/09/18 05:26:43;;;;;;;7.18;0.82;;;;;;;22.56;43.23;101604.25;5014937;28;20053;-78
2022/09/18 05:29:08;;;;;;;5.20;0.60;;;;;;;22.36;43.89;101599.88;5014926;28;20037;-78
2022/09/18 05:31:33;;;;;;;3.72;0.40;;;;;;;22.41;44.37;101604.97;5014089;28;20092;-77
2022/09/18 05:33:59;;;;;;;6.10;0.75;;;;;;;22.33;44.17;101597.34;5049280;28;20100;-77
2022/09/18 05:36:24;;;;;;;4.10;0.65;;;;;;;22.00;44.52;101613.94;5031154;28;20025;-76
2022/09/18 05:38:50;;;;;;;4.03;0.60;;;;;;;21.97;44.86;101616.75;5040055;28;20064;-77
2022/09/18 05:41:15;;;;;;;5.15;0.75;;;;;;;21.78;44.54;101633.53;5014999;28;20482;-77
2022/09/18 05:43:44;;;;;;;5.35;0.40;;;;;;;22.06;44.62;101621.63;5013947;28;20050;-77
2022/09/18 05:46:10;;;;;;;8.32;1.27;;;;;;;21.79;45.34;101624.63;5021327;28;20164;-77
2022/09/18 05:48:35;;;;;;;7.45;2.35;;;;;;;21.93;45.58;101625.81;5032678;28;20104;-77
2022/09/18 05:51:01;;;;;;;5.25;0.80;;;;;;;21.71;44.66;101626.78;5016101;28;20390;-78
2022/09/18 05:53:26;;;;;;;3.90;0.60;;;;;;;21.58;45.78;101614.94;5014201;28;20044;-78
2022/09/18 05:55:51;;;;;;;4.22;0.55;;;;;;;22.31;45.25;101609.84;5015922;28;20025;-77
2022/09/18 05:58:18;;;;;;;5.68;0.77;;;;;;;22.50;44.40;101605.44;5014889;28;20037;-78
2022/09/18 06:00:44;;;;;;;3.75;0.88;;;;;;;22.17;45.07;101599.84;5013665;28;20033;-77
2022/09/18 06:03:12;;;;;;;3.08;0.50;;;;;;;22.40;44.61;101593.47;5014195;28;20022;-79
2022/09/18 06:05:39;;;;;;;5.45;0.70;;;;;;;22.06;45.04;101604.81;5019787;28;20499;-77
2022/09/18 06:08:07;;;;;;;1.65;0.57;;;;;;;21.52;47.09;101606.28;5033914;28;20074;-76
2022/09/18 06:10:36;;;;;;;7.55;0.73;;;;;;;21.26;47.57;101611.84;5030130;28;20025;-75
2022/09/18 06:13:01;;;;;;;8.50;0.85;;;;;;;20.57;49.36;101615.53;5033829;28;20443;-74
2022/09/18 06:15:27;;;;;;;2.83;0.70;;;;;;;20.89;50.05;101637.31;5022210;28;20029;-74
2022/09/18 06:17:53;;;;;;;6.68;0.68;;;;;;;20.33;51.27;101629.72;5024230;28;20076;-74
2022/09/18 06:20:18;;;;;;;5.18;1.10;;;;;;;20.51;50.93;101614.84;5032334;28;20129;-75
2022/09/18 06:22:44;;;;;;;6.63;1.08;;;;;;;19.73;52.26;101618.63;5033081;28;20120;-74
2022/09/18 06:25:10;;;;;;;5.05;1.00;;;;;;;20.35;51.13;101613.72;5033236;28;20017;-75
2022/09/18 06:27:35;;;;;;;5.28;1.10;;;;;;;20.86;50.78;101609.06;5033336;28;20029;-77
2022/09/18 06:30:02;;;;;;;7.55;0.90;;;;;;;21.54;48.59;101608.03;5034600;28;20046;-76
2022/09/18 06:32:27;;;;;;;7.82;0.90;;;;;;;20.86;50.13;101600.25;5032534;28;20426;-76
2022/09/18 06:34:53;;;;;;;4.88;0.70;;;;;;;21.10;48.35;101607.19;5033410;28;20028;-76
2022/09/18 06:37:18;;;;;;;4.70;0.70;;;;;;;21.58;48.21;101588.34;5033855;28;20478;-77
2022/09/18 06:39:44;;;;;;;6.22;1.30;;;;;;;22.06;47.38;101592.34;5024811;28;20029;-77
2022/09/18 06:42:09;;;;;;;5.82;0.70;;;;;;;22.17;46.52;101590.09;5031512;28;20017;-78
2022/09/18 06:44:35;;;;;;;9.13;0.90;;;;;;;21.99;47.51;101590.94;5033320;28;20474;-77
2022/09/18 06:47:01;;;;;;;9.02;1.42;;;;;;;22.48;46.42;101591.31;5029400;28;20029;-78
2022/09/18 06:49:26;;;;;;;10.95;0.98;;;;;;;22.33;46.07;101597.34;5030661;28;20508;-78
2022/09/18 06:51:51;;;;;;;6.47;0.95;;;;;;;23.19;44.87;101593.16;5032811;28;20057;-78
2022/09/18 06:54:17;;;;;;;7.80;0.90;;;;;;;23.06;45.28;101604.50;5021470;28;20417;-77
2022/09/18 06:56:45;;;;;;;7.93;1.33;;;;;;;22.51;45.66;101603.63;5031900;28;20159;-78
2022/09/18 06:59:10;;;;;;;4.30;0.75;;;;;;;23.18;44.67;101604.75;5032206;28;20029;-78
2022/09/18 07:01:35;;;;;;;6.03;1.00;;;;;;;22.57;46.43;101599.78;5033723;28;20397;-78
2022/09/18 07:04:01;;;;;;;9.73;1.30;;;;;;;22.91;45.46;101603.47;5022553;28;20057;-77
2022/09/18 07:06:26;;;;;;;12.43;1.10;;;;;;;22.87;46.21;101608.06;5024580;28;20021;-77
2022/09/18 07:08:52;;;;;;;7.55;1.10;;;;;;;23.15;45.44;101607.59;5040977;28;20109;-78
2022/09/18 07:11:18;;;;;;;9.43;1.00;;;;;;;23.15;45.09;101604.94;5030638;28;20036;-78
2022/09/18 07:13:45;;;;;;;5.63;1.05;;;;;;;23.11;45.46;101602.44;5027536;28;20482;-78
2022/09/18 07:16:10;;;;;;;6.97;1.33;;;;;;;23.47;45.10;101605.06;5052656;28;20014;-78
2022/09/18 07:18:36;;;;;;;15.18;3.22;;;;;;;23.81;44.63;101605.94;5027244;28;20097;-78
2022/09/18 07:21:01;;;;;;;8.68;1.33;;;;;;;23.80;44.62;101603.38;5028058;28;20110;-78
2022/09/18 07:23:29;;;;;;;8.55;1.40;;;;;;;24.21;43.98;101589.59;5021102;28;20025;-77
2022/09/18 07:25:58;;;;;;;8.40;2.05;;;;;;;23.05;45.12;101600.97;5013554;28;20045;-77
2022/09/18 07:28:23;;;;;;;9.70;2.47;;;;;;;23.53;44.67;101596.75;5028766;28;20025;-77
2022/09/18 07:30:49;;;;;;;9.18;1.10;;;;;;;23.80;44.45;101598.03;5028255;28;20036;-77
2022/09/18 07:33:14;;;;;;;6.07;0.88;;;;;;;23.94;44.83;101590.16;5028612;28;20029;-77
2022/09/18 07:35:39;;;;;;;14.30;2.85;;;;;;;23.16;45.39;101592.44;5013384;28;20025;-78
2022/09/18 07:38:06;;;;;;;7.43;1.45;;;;;;;22.69;46.12;101599.19;5011712;28;20026;-77
2022/09/18 07:40:32;;;;;;;11.30;1.00;;;;;;;22.53;47.17;101599.94;5036357;28;20029;-78
2022/09/18 07:43:03;;;;;;;5.15;1.05;;;;;;;22.30;46.48;101597.50;5044914;28;20084;-77
2022/09/18 07:45:28;;;;;;;6.47;0.95;;;;;;;22.77;46.04;101602.34;5011249;28;20021;-78
2022/09/18 07:47:54;;;;;;;12.02;1.30;;;;;;;22.88;45.33;101601.81;5044987;28;20486;-78
2022/09/18 07:50:20;;;;;;;12.65;1.50;;;;;;;22.13;46.62;101604.47;5045127;28;20447;-78
2022/09/18 07:52:56;;;;;;;8.30;1.20;;;;;;;22.81;46.26;101595.91;5044678;28;20108;-78
2022/09/18 07:55:23;;;;;;;7.95;1.50;;;;;;;22.56;47.06;101598.06;5013053;28;20117;-79
2022/09/18 07:57:57;;;;;;;8.00;1.00;;;;;;;22.41;47.13;101595.22;5027170;28;20025;-78
2022/09/18 08:00:24;;;;;;;7.53;2.00;;;;;;;21.59;48.20;101601.56;5032297;28;20029;-78
2022/09/18 08:02:50;;;;;;;5.90;0.80;;;;;;;22.09;47.24;101592.25;5032827;28;20385;-78
2022/09/18 08:05:16;;;;;;;4.68;0.85;;;;;;;21.84;46.94;101604.00;5032579;28;20033;-79
2022/09/18 08:07:41;;;;;;;3.15;0.90;;;;;;;20.91;49.47;101611.53;5031689;28;20086;-78
2022/09/18 08:10:07;;;;;;;3.75;0.85;;;;;;;20.75;50.64;101620.13;5031795;28;20416;-79
2022/09/18 08:12:32;;;;;;;4.72;1.00;;;;;;;21.05;50.08;101617.16;5031288;28;20587;-78
2022/09/18 08:14:58;;;;;;;3.25;1.45;;;;;;;21.70;48.07;101625.03;5016846;28;20500;-77
2022/09/18 08:17:25;;;;;;;5.30;0.80;;;;;;;21.80;48.34;101621.06;5011996;28;20018;-78
2022/09/18 08:19:51;;;;;;;7.70;1.13;;;;;;;21.65;49.08;101621.72;5012858;28;20026;-77
2022/09/18 08:22:16;;;;;;;6.90;1.08;;;;;;;21.59;48.60;101617.53;5012510;28;20022;-76
2022/09/18 08:24:42;;;;;;;7.10;0.90;;;;;;;21.59;48.72;101622.84;5012720;28;20559;-75
2022/09/18 08:27:07;;;;;;;5.88;0.90;;;;;;;21.14;49.21;101611.47;5011973;28;20508;-75
2022/09/18 08:29:33;;;;;;;4.85;0.70;;;;;;;21.47;49.69;101618.91;5027952;28;20022;-77
2022/09/18 08:31:58;;;;;;;3.17;0.80;;;;;;;21.79;47.52;101614.00;5013290;28;20443;-77
2022/09/18 08:34:24;;;;;;;5.45;0.70;;;;;;;22.29;47.22;101601.94;5011043;28;20034;-78
2022/09/18 08:36:49;;;;;;;9.73;1.60;;;;;;;21.51;48.97;101615.19;5011598;28;20014;-77
2022/09/18 08:39:14;;;;;;;5.80;1.10;;;;;;;21.88;47.80;101607.38;5027669;28;20084;-78
2022/09/18 08:42:21;;;;;;;6.55;1.10;;;;;;;22.30;47.55;101602.81;5011966;28;20033;-77
2022/09/18 08:44:55;;;;;;;5.90;1.20;;;;;;;22.49;46.48;101614.34;4991042;28;20109;-77
2022/09/18 08:47:30;;;;;;;7.80;1.15;;;;;;;22.64;47.11;101611.88;5008535;28;20069;-77
2022/09/18 08:50:08;;;;;;;7.50;2.75;;;;;;;20.39;52.35;101615.31;5031156;28;20025;-77
2022/09/18 08:52:39;;;;;;;9.68;3.28;;;;;;;20.69;53.43;101609.78;5030861;28;20036;-76
2022/09/18 08:55:05;;;;;;;9.73;2.03;;;;;;;21.72;50.40;101590.38;5034528;28;20033;-77
2022/09/18 08:57:41;;;;;;;14.02;2.10;;;;;;;20.97;52.97;101598.00;5034668;28;20022;-77
2022/09/18 09:00:22;;;;;;;8.57;1.25;;;;;;;20.83;54.45;101601.22;5068486;28;20025;-77
2022/09/18 09:02:50;;;;;;;11.65;1.50;;;;;;;20.91;53.38;101591.16;5034517;28;20025;-78
2022/09/18 09:05:24;;;;;;;9.18;1.75;;;;;;;21.81;51.24;101585.50;5028955;28;20030;-77
2022/09/18 09:07:52;;;;;;;12.75;2.55;;;;;;;22.07;49.59;101574.63;5035373;28;20033;-77
2022/09/18 09:10:56;;;;;;;8.85;1.67;;;;;;;22.31;50.03;101585.88;5034202;28;20037;-77
2022/09/18 09:13:31;;;;;;;14.85;2.13;;;;;;;21.16;51.46;101593.63;5011864;28;20246;-77
2022/09/18 09:16:17;;;;;;;9.32;1.42;;;;;;;23.11;47.17;101584.66;5034230;28;20025;-77
2022/09/18 09:18:51;;;;;;;5.00;1.05;;;;;;;22.93;45.94;101580.25;5034562;28;20033;-77
2022/09/18 09:21:21;;;;;;;8.55;1.17;;;;;;;22.46;46.98;101582.53;5033218;28;20033;-76
2022/09/18 09:24:05;;;;;;;4.10;1.02;;;;;;;21.68;47.04;101579.03;5013741;28;20036;-78
2022/09/18 09:26:33;;;;;;;3.85;0.60;;;;;;;22.06;45.30;101579.06;5031160;28;20049;-76
2022/09/18 09:29:21;;;;;;;4.57;0.70;;;;;;;22.68;44.93;101578.81;5014359;28;20037;-77
2022/09/18 09:32:03;;;;;;;1.30;0.60;;;;;;;22.58;44.44;101582.88;5030560;28;20029;-77
2022/09/18 09:34:45;;;;;;;6.28;0.63;;;;;;;21.99;47.06;101582.94;5031120;28;20021;-78
2022/09/18 09:37:15;;;;;;;9.03;1.03;;;;;;;23.31;43.68;101585.47;5014989;28;20041;-78
2022/09/18 09:39:49;;;;;;;2.20;1.00;;;;;;;22.55;45.33;101599.00;5040308;28;20033;-75
2022/09/18 09:42:32;;;;;;;9.35;1.40;;;;;;;22.24;45.79;101595.09;5015982;28;20034;-77
2022/09/18 09:45:40;;;;;;;4.63;1.20;;;;;;;20.99;48.99;101623.59;5047014;28;20022;-76
2022/09/18 09:48:25;;;;;;;6.88;0.90;;;;;;;21.26;50.94;101614.50;5014076;28;20050;-75
2022/09/18 09:51:13;;;;;;;9.73;1.10;;;;;;;20.47;50.78;101613.22;5013997;28;20088;-74
2022/09/18 09:53:38;;;;;;;5.20;0.90;;;;;;;20.39;52.11;101602.06;5014149;28;20030;-76
2022/09/18 09:56:07;;;;;;;4.65;0.80;;;;;;;20.42;50.16;101604.56;5021522;28;20032;-75
2022/09/18 09:58:53;;;;;;;3.53;0.85;;;;;;;21.17;48.54;101611.31;5033173;28;20033;-75
2022/09/18 10:01:28;;;;;;;3.85;0.50;;;;;;;20.67;49.59;101600.94;5034139;28;20036;-77
2022/09/18 10:04:24;;;;;;;1.80;0.65;;;;;;;21.27;48.66;101598.50;5033523;28;20034;-78
2022/09/18 10:06:52;;;;;;;7.60;0.90;;;;;;;21.19;48.49;101593.50;5033360;28;20125;-77
2022/09/18 10:09:33;;;;;;;4.28;0.70;;;;;;;21.96;47.31;101583.09;5033900;28;20029;-77
2022/09/18 10:12:05;;;;;;;4.93;0.90;;;;;;;21.84;46.80;101593.38;5033197;28;20501;-78
2022/09/18 10:14:34;;;;;;;3.10;0.63;;;;;;;21.31;49.03;101607.22;5033455;28;20036;-78
2022/09/18 10:17:03;;;;;;;6.05;0.60;;;;;;;22.42;46.22;101607.59;5033338;28;20059;-77
2022/09/18 10:19:36;;;;;;;2.72;0.73;;;;;;;20.74;50.41;101607.75;5032831;28;20040;-76
2022/09/18 10:22:06;;;;;;;6.10;0.75;;;;;;;22.32;47.38;101590.28;5033545;28;20033;-77
2022/09/18 10:24:45;;;;;;;13.20;1.10;;;;;;;22.11;46.93;101601.00;5033290;28;20029;-77
2022/09/18 10:27:13;;;;;;;5.93;0.90;;;;;;;23.10;45.77;101596.25;5066074;28;20029;-78
2022/09/18 10:29:39;;;;;;;8.60;1.60;;;;;;;22.51;46.88;101601.81;5028803;28;20087;-78
2022/09/18 10:32:05;;;;;;;8.45;1.33;;;;;;;21.83;48.38;101604.94;5029669;28;20030;-77
2022/09/18 10:34:32;;;;;;;12.38;2.08;;;;;;;22.86;46.82;101607.22;5013900;28;20052;-77
2022/09/18 10:36:59;;;;;;;11.77;1.38;;;;;;;23.14;46.53;101605.00;5029720;28;20088;-77
2022/09/18 10:39:30;;;;;;;8.43;1.23;;;;;;;23.39;45.62;101609.94;5029722;28;20018;-77
2022/09/18 10:41:57;;;;;;;4.07;1.10;;;;;;;22.12;47.98;101613.38;5029151;28;20030;-77
2022/09/18 10:44:26;;;;;;;11.73;1.15;;;;;;;22.68;47.63;101613.44;5013314;28;20061;-77
2022/09/18 10:47:06;;;;;;;12.95;1.80;;;;;;;22.01;48.83;101615.69;5018831;28;20037;-77
2022/09/18 10:49:35;;;;;;;8.18;0.90;;;;;;;21.59;50.04;101625.50;5032881;28;20040;-77
2022/09/18 10:52:30;;;;;;;6.88;0.77;;;;;;;21.59;50.00;101632.63;5034139;28;20112;-77
2022/09/18 10:54:58;;;;;;;4.78;1.15;;;;;;;21.60;49.81;101627.25;5027918;28;20041;-77
2022/09/18 10:57:32;;;;;;;6.15;1.10;;;;;;;20.53;51.96;101614.78;5032610;28;20116;-76
2022/09/18 10:59:57;;;;;;;6.75;0.90;;;;;;;21.65;49.54;101617.28;5032664;28;20029;-78
2022/09/18 11:02:25;;;;;;;10.07;2.17;;;;;;;20.97;51.13;101613.94;5033333;28;20033;-77
2022/09/18 11:04:52;;;;;;;7.50;0.85;;;;;;;21.32;50.56;101623.09;5031900;28;20036;-77
2022/09/18 11:07:19;;;;;;;3.88;0.70;;;;;;;20.74;52.60;101618.38;5032343;28;20072;-77
2022/09/18 11:09:45;;;;;;;4.78;0.63;;;;;;;20.67;52.61;101624.84;5032013;28;20021;-76
2022/09/18 11:12:16;;;;;;;5.07;0.80;;;;;;;21.31;51.89;101615.19;5032402;28;20028;-76
2022/09/18 11:14:48;;;;;;;5.68;0.98;;;;;;;20.31;54.44;101620.06;5032293;28;20151;-76
2022/09/18 11:17:22;;;;;;;3.63;0.93;;;;;;;20.69;53.43;101615.09;5030939;28;20025;-75
2022/09/18 11:19:53;;;;;;;10.52;0.85;;;;;;;21.38;51.45;101605.13;5032395;28;20017;-76
2022/09/18 11:22:33;;;;;;;9.20;1.20;;;;;;;21.08;53.61;101611.69;5015296;28;20080;-78
2022/09/18 11:25:22;;;;;;;8.52;1.00;;;;;;;22.06;49.94;101599.50;5012890;28;20497;-78
2022/09/18 11:27:52;;;;;;;9.10;1.95;;;;;;;22.48;49.86;101601.97;5029227;28;20028;-78
2022/09/18 11:30:25;;;;;;;10.52;1.25;;;;;;;22.03;50.68;101611.16;5013069;28;20112;-77
2022/09/18 11:33:04;;;;;;;8.95;1.33;;;;;;;22.95;48.48;101616.56;5012528;28;20030;-78
2022/09/18 11:35:31;;;;;;;8.90;1.38;;;;;;;22.37;48.41;101612.28;5029032;28;20125;-77
2022/09/18 11:38:05;;;;;;;8.15;1.45;;;;;;;22.24;50.12;101616.41;5028664;28;20018;-77